createdAt,value
2019-04-16T00:04:22.266Z,19.93
2019-04-16T00:09:42.111Z,20.80
2019-04-16T00:14:44.555Z,18.87
2019-04-16T00:19:47.045Z,16.33
2019-04-16T00:24:49.522Z,16.77
2019-04-16T00:29:51.974Z,18.33
2019-04-16T00:34:54.447Z,16.63
2019-04-16T00:39:57.058Z,15.67
2019-04-16T00:44:59.529Z,19.03
2019-04-16T00:50:01.882Z,15.63
2019-04-16T00:55:05.756Z,20.30
2019-04-16T01:00:06.774Z,16.90
2019-04-16T01:05:09.244Z,17.60
2019-04-16T01:10:11.710Z,20.07
2019-04-16T01:15:14.212Z,16.43
2019-04-16T01:20:16.677Z,17.80
2019-04-16T01:25:20.252Z,18.93
2019-04-16T01:30:21.592Z,21.90
2019-04-16T01:35:30.288Z,20.23
2019-04-16T01:40:32.761Z,16.03
2019-04-16T01:45:35.235Z,17.37
2019-04-16T01:50:37.694Z,17.13
2019-04-16T01:55:42.479Z,17.60
2019-04-16T02:00:42.623Z,16.20
2019-04-16T02:05:45.117Z,19.17
2019-04-16T02:10:47.627Z,15.90
2019-04-16T02:15:50.634Z,16.87
2019-04-16T02:20:52.495Z,20.50
2019-04-16T02:25:54.964Z,18.20
2019-04-16T02:30:57.440Z,16.37
2019-04-16T02:35:59.912Z,16.37
2019-04-16T02:41:02.415Z,19.83
2019-04-16T02:46:04.981Z,19.13
2019-04-16T02:51:08.539Z,17.53
2019-04-16T02:56:19.317Z,17.73
2019-04-16T03:01:24.115Z,22.63
2019-04-16T03:06:26.588Z,18.07
2019-04-16T03:11:29.048Z,16.93
2019-04-16T03:16:37.706Z,16.80
2019-04-16T03:21:36.499Z,19.33
2019-04-16T03:26:38.962Z,17.60
2019-04-16T03:31:41.431Z,19.50
2019-04-16T03:36:43.896Z,18.37
2019-04-16T03:41:46.379Z,19.10
2019-04-16T03:46:48.823Z,19.07
2019-04-16T03:51:51.279Z,18.93
2019-04-16T03:56:53.736Z,20.37
2019-04-16T04:01:56.213Z,20.37
2019-04-16T04:06:58.679Z,17.07
2019-04-16T04:12:01.157Z,19.03
2019-04-16T04:17:06.681Z,19.23
2019-04-16T04:22:06.078Z,22.77
2019-04-16T04:27:13.077Z,17.47
2019-04-16T04:32:11.045Z,22.10
2019-04-16T04:37:13.484Z,20.60
2019-04-16T04:42:18.985Z,20.53
2019-04-16T04:47:20.060Z,19.37
2019-04-16T04:52:21.032Z,25.83
2019-04-16T04:57:23.560Z,23.13
2019-04-16T05:02:26.023Z,22.57
2019-04-16T05:07:29.344Z,21.13
2019-04-16T05:12:30.977Z,22.50
2019-04-16T05:17:35.431Z,25.57
2019-04-16T05:22:35.927Z,23.30
2019-04-16T05:27:41.274Z,20.73
2019-04-16T05:32:40.905Z,23.47
2019-04-16T05:37:43.364Z,23.00
2019-04-16T05:42:45.833Z,24.70
2019-04-16T05:47:48.987Z,23.50
2019-04-16T05:52:50.766Z,20.60
2019-04-16T05:57:57.932Z,26.63
2019-04-16T06:02:55.700Z,19.80
2019-04-16T06:07:58.159Z,22.33
2019-04-16T06:13:12.677Z,22.30
2019-04-16T06:18:24.386Z,24.17
2019-04-16T06:23:38.804Z,20.33
2019-04-16T06:28:59.973Z,21.90
2019-04-16T06:34:01.923Z,22.27
2019-04-16T06:39:13.461Z,25.80
2019-04-16T06:44:15.951Z,23.67
2019-04-16T06:49:39.399Z,22.33
2019-04-16T06:54:39.219Z,21.60
2019-04-16T07:00:54.596Z,28.37
2019-04-16T07:05:04.867Z,29.17
2019-04-16T07:10:07.321Z,26.70
2019-04-16T07:15:09.791Z,25.33
2019-04-16T07:20:13.527Z,24.23
2019-04-16T07:25:15.486Z,25.90
2019-04-16T07:30:19.768Z,31.87
2019-04-16T07:35:38.188Z,22.43
2019-04-16T07:40:58.780Z,19.93
2019-04-16T07:46:19.460Z,20.33
2019-04-16T07:51:27.910Z,19.90
2019-04-16T07:56:30.380Z,19.30
2019-04-16T08:01:32.839Z,21.17
2019-04-16T08:06:35.317Z,20.43
2019-04-16T08:11:37.798Z,19.07
2019-04-16T08:16:47.084Z,18.67
2019-04-16T08:21:44.266Z,16.50
2019-04-16T08:26:45.441Z,18.17
2019-04-16T08:31:47.725Z,23.52
2019-04-16T08:36:50.203Z,14.90
2019-04-16T08:41:53.109Z,14.30
2019-04-16T08:46:58.302Z,15.63
2019-04-16T08:51:57.658Z,15.23
2019-04-16T08:57:00.408Z,15.10
2019-04-16T09:02:02.603Z,15.82
2019-04-16T09:07:12.075Z,16.45
2019-04-16T09:12:09.308Z,16.12
2019-04-16T09:17:10.463Z,16.20
2019-04-16T09:22:16.181Z,14.52
2019-04-16T09:27:30.077Z,16.85
2019-04-16T09:32:48.075Z,18.20
2019-04-16T09:37:53.067Z,15.95
2019-04-16T09:42:55.588Z,27.50
2019-04-16T09:47:58.014Z,17.27
2019-04-16T09:53:02.050Z,17.55
2019-04-16T09:58:06.072Z,17.02
2019-04-16T10:03:23.577Z,17.80
2019-04-16T10:08:29.143Z,17.62
2019-04-16T10:13:31.823Z,18.00
2019-04-16T10:18:34.659Z,16.17
2019-04-16T10:23:39.575Z,17.67
2019-04-16T10:28:42.070Z,18.42
2019-04-16T10:33:44.535Z,17.73
2019-04-16T10:38:49.843Z,15.88
2019-04-16T10:43:57.861Z,20.83
2019-04-16T10:49:15.726Z,17.15
2019-04-16T10:54:20.864Z,18.42
2019-04-16T10:59:41.452Z,20.92
2019-04-16T11:04:44.030Z,21.08
2019-04-16T11:09:46.615Z,19.48
2019-04-16T11:14:48.998Z,18.52
2019-04-16T11:19:54.151Z,17.48
2019-04-16T11:24:53.983Z,17.60
2019-04-16T11:29:56.461Z,18.48
2019-04-16T11:34:58.909Z,17.33
2019-04-16T11:40:01.480Z,17.12
2019-04-16T11:45:03.886Z,21.17
2019-04-16T11:50:06.703Z,15.87
2019-04-16T11:55:08.927Z,14.83
2019-04-16T12:00:11.493Z,16.47
2019-04-16T12:05:13.936Z,21.70
2019-04-16T12:10:16.519Z,14.00
2019-04-16T12:15:21.575Z,17.77
2019-04-16T12:20:42.511Z,17.90
2019-04-16T12:25:50.897Z,13.70
2019-04-16T12:31:08.620Z,12.80
2019-04-16T12:36:14.596Z,17.40
2019-04-16T12:41:34.891Z,21.10
2019-04-16T12:46:40.272Z,15.50
2019-04-16T12:51:45.525Z,17.83
2019-04-16T12:57:03.263Z,13.37
2019-04-16T13:02:20.868Z,15.03
2019-04-16T13:07:41.321Z,16.63
2019-04-16T13:12:43.807Z,11.80
2019-04-16T13:18:04.718Z,11.77
2019-04-16T13:23:25.308Z,11.90
2019-04-16T13:28:27.773Z,12.43
2019-04-16T13:33:30.238Z,13.27
2019-04-16T13:38:41.923Z,13.07
2019-04-16T13:43:44.390Z,15.37
2019-04-16T13:48:46.893Z,13.87
2019-04-16T13:53:52.327Z,12.80
2019-04-16T13:58:56.071Z,11.33
2019-04-16T14:03:57.295Z,11.03
2019-04-16T14:08:59.761Z,11.47
2019-04-16T14:14:08.086Z,11.43
2019-04-16T14:19:09.344Z,11.50
2019-04-16T14:24:12.543Z,14.33
2019-04-16T14:29:13.950Z,11.07
2019-04-16T14:34:22.653Z,13.37
2019-04-16T14:39:25.148Z,11.70
2019-04-16T14:44:27.645Z,13.27
2019-04-16T14:49:30.148Z,13.70
2019-04-16T14:54:32.620Z,13.70
2019-04-16T14:59:37.851Z,16.43
2019-04-16T15:04:43.221Z,17.03
2019-04-16T15:09:51.833Z,13.20
2019-04-16T15:15:08.537Z,13.30
2019-04-16T15:20:11.972Z,13.40
2019-04-16T15:25:23.571Z,12.33
2019-04-16T15:30:44.243Z,11.97
2019-04-16T15:35:49.637Z,16.70
2019-04-16T15:40:52.120Z,13.57
2019-04-16T15:46:18.124Z,14.60
2019-04-16T15:51:27.668Z,15.20
2019-04-16T15:56:30.196Z,12.77
2019-04-16T16:01:35.485Z,15.17
2019-04-16T16:06:38.014Z,14.63
2019-04-16T16:11:51.186Z,18.37
2019-04-16T16:16:52.195Z,13.90
2019-04-16T16:21:54.689Z,13.33
2019-04-16T16:26:57.190Z,15.00
2019-04-16T16:31:59.694Z,14.07
2019-04-16T16:37:02.165Z,19.20
2019-04-16T16:42:04.644Z,19.40
2019-04-16T16:47:25.529Z,21.97
2019-04-16T16:52:28.042Z,14.97
2019-04-16T16:57:48.989Z,11.23
2019-04-16T17:02:51.464Z,14.97
2019-04-16T17:07:55.141Z,12.97
2019-04-16T17:12:56.539Z,13.23
2019-04-16T17:17:59.023Z,43.90
2019-04-16T17:23:01.520Z,12.77
2019-04-16T17:28:04.010Z,15.17
2019-04-16T17:33:06.505Z,16.40
2019-04-16T17:38:08.987Z,14.00
2019-04-16T17:43:14.285Z,16.63
2019-04-16T17:48:25.898Z,9.83
2019-04-16T17:53:43.542Z,13.07
2019-04-16T17:58:48.511Z,18.50
2019-04-16T18:03:51.158Z,12.00
2019-04-16T18:09:11.889Z,15.63
2019-04-16T18:14:32.549Z,14.10
2019-04-16T18:19:35.029Z,24.47
2019-04-16T18:24:55.672Z,15.13
2019-04-16T18:30:07.198Z,16.03
2019-04-16T18:35:09.584Z,15.10
2019-04-16T18:40:24.270Z,10.40
2019-04-16T18:45:29.410Z,8.13
2019-04-16T18:50:31.902Z,7.13
2019-04-16T18:55:34.376Z,4.83
2019-04-16T19:00:46.089Z,5.67
2019-04-16T19:05:48.608Z,7.33
2019-04-16T19:10:51.080Z,7.97
2019-04-16T19:15:53.577Z,6.53
2019-04-16T19:20:56.078Z,7.50
2019-04-16T19:25:58.613Z,6.03
2019-04-16T19:31:01.081Z,6.10
2019-04-16T19:36:03.560Z,6.77
2019-04-16T19:41:06.060Z,6.87
2019-04-16T19:46:08.732Z,6.37
2019-04-16T19:51:11.505Z,6.60
2019-04-16T19:56:15.542Z,17.40
2019-04-16T20:01:16.460Z,7.67
2019-04-16T20:06:18.934Z,10.90
2019-04-16T20:11:21.791Z,7.83
2019-04-16T20:16:23.916Z,7.33
2019-04-16T20:21:26.412Z,7.50
2019-04-16T20:26:29.319Z,7.87
2019-04-16T20:31:31.478Z,8.90
2019-04-16T20:36:33.964Z,7.80
2019-04-16T20:41:36.485Z,7.37
2019-04-16T20:46:38.974Z,9.27
2019-04-16T20:51:41.454Z,8.70
2019-04-16T20:56:43.948Z,9.33
2019-04-16T21:01:46.506Z,10.03
2019-04-16T21:06:48.985Z,9.30
2019-04-16T21:11:52.828Z,10.63
2019-04-16T21:16:54.547Z,11.83
2019-04-16T21:21:58.287Z,10.73
2019-04-16T21:26:59.093Z,8.40
2019-04-16T21:32:19.675Z,10.13
2019-04-16T21:37:31.364Z,7.63
2019-04-16T21:42:34.878Z,9.40
2019-04-16T21:47:36.343Z,8.13
2019-04-16T21:52:38.822Z,7.70
2019-04-16T21:57:42.839Z,8.80
2019-04-16T22:02:43.765Z,7.60
2019-04-16T22:07:46.231Z,7.60
2019-04-16T22:12:48.795Z,7.83
2019-04-16T22:17:51.167Z,9.70
2019-04-16T22:22:53.638Z,9.23
2019-04-16T22:27:59.616Z,9.00
2019-04-16T22:33:05.662Z,10.60
2019-04-16T22:38:04.635Z,9.57
2019-04-16T22:43:22.188Z,11.03
2019-04-16T22:48:24.685Z,11.07
2019-04-16T22:53:27.145Z,10.77
2019-04-16T22:58:47.613Z,8.03
2019-04-16T23:03:53.295Z,11.10
2019-04-16T23:08:53.278Z,9.43
2019-04-16T23:13:55.739Z,9.00
2019-04-16T23:18:58.211Z,8.07
2019-04-16T23:24:00.681Z,7.53
2019-04-16T23:29:03.145Z,9.13
2019-04-16T23:34:07.047Z,8.93
2019-04-16T23:39:08.073Z,9.47
2019-04-16T23:44:10.625Z,9.27
2019-04-16T23:49:31.436Z,8.23
2019-04-16T23:54:46.091Z,12.90
2019-04-16T23:59:54.676Z,10.80
